Time;durP1;ratioP1;P1;durP2;ratioP2;P2;SDS_P1;SDS_P2;PMS_P1;PMS_P2;Temp;Humidity;BMP_temperature;BMP_pressure;BME280_temperature;BME280_humidity;BME280_pressure;Samples;Min_cycle;Max_cycle;Signal;HPM_P1;HPM_P2
2022/09/14 00:00:33;;;;;;;19.33;12.00;;;;;;;4.77;65.38;97742.56;6128447;29;20079;-69
2022/09/14 00:03:35;;;;;;;;;;;;;;;4.69;64.94;97741.91;6128810;29;20039;-68
2022/09/14 00:06:37;;;;;;;20.90;11.40;;;;;;;4.63;65.46;97736.88;6128283;29;19925;-68
2022/09/14 00:09:39;;;;;;;20.42;12.73;;;;;;;4.60;66.16;97744.78;6128030;29;20036;-68
2022/09/14 00:12:43;;;;;;;20.02;11.82;;;;;;;4.61;65.85;97746.47;6127975;29;20188;-69
2022/09/14 00:15:45;;;;;;;23.75;11.65;;;;;;;4.55;66.04;97738.81;6128086;29;20051;-69
2022/09/14 00:18:52;;;;;;;21.50;11.75;;;;;;;4.56;66.26;97745.72;6128054;29;20198;-68
2022/09/14 00:21:57;;;;;;;19.75;11.95;;;;;;;4.51;66.08;97743.28;6127977;29;20067;-67
2022/09/14 00:25:01;;;;;;;20.40;12.07;;;;;;;4.47;66.45;97733.81;6128101;29;20531;-68
2022/09/14 00:28:04;;;;;;;19.25;11.30;;;;;;;4.46;66.31;97737.31;6127712;29;20046;-70
2022/09/14 00:31:10;;;;;;;18.88;11.10;;;;;;;4.42;66.77;97736.56;6126693;29;20043;-69
2022/09/14 00:34:15;;;;;;;17.92;10.57;;;;;;;4.42;66.74;97738.31;6127555;29;20044;-69
2022/09/14 00:37:17;;;;;;;16.20;9.75;;;;;;;4.38;67.01;97742.72;6126075;29;20536;-68
2022/09/14 00:40:20;;;;;;;16.45;10.20;;;;;;;4.37;66.74;97725.41;6127377;29;20044;-68
2022/09/14 00:43:25;;;;;;;17.08;9.35;;;;;;;4.35;67.15;97734.13;6127001;29;20572;-69
2022/09/14 00:46:34;;;;;;;14.77;8.93;;;;;;;4.37;67.14;97733.22;6127456;29;20179;-69
2022/09/14 00:49:39;;;;;;;12.88;8.05;;;;;;;4.40;67.05;97735.72;6127377;29;20047;-68
2022/09/14 00:52:49;;;;;;;14.20;8.88;;;;;;;4.43;67.04;97738.25;6127324;29;20046;-69
2022/09/14 00:55:55;;;;;;;15.27;8.82;;;;;;;4.44;67.05;97737.34;6127052;29;20053;-68
2022/09/14 00:59:01;;;;;;;14.95;8.70;;;;;;;4.48;66.93;97735.53;6127213;29;20046;-68
2022/09/14 01:02:03;;;;;;;15.52;8.23;;;;;;;4.50;66.78;97737.22;6126974;29;20780;-68
2022/09/14 01:05:06;;;;;;;16.67;8.55;;;;;;;4.57;66.67;97747.47;6126838;29;20035;-70
2022/09/14 01:08:17;;;;;;;14.82;8.38;;;;;;;4.61;66.67;97749.94;6126930;29;20057;-68
2022/09/14 01:11:47;;;;;;;14.65;7.68;;;;;;;4.60;66.68;97748.22;6126749;29;20043;-69
2022/09/14 01:15:05;;;;;;;11.13;7.78;;;;;;;4.64;66.56;97754.22;6127116;29;20047;-69
2022/09/14 01:18:28;;;;;;;15.63;8.13;;;;;;;4.63;66.31;97748.16;6126641;29;20047;-69
2022/09/14 01:21:35;;;;;;;14.18;8.07;;;;;;;4.65;66.55;97750.72;6126533;29;20071;-68
2022/09/14 01:25:01;;;;;;;13.23;7.45;;;;;;;4.61;66.92;97749.06;6126755;29;20047;-69
2022/09/14 01:28:14;;;;;;;12.82;7.32;;;;;;;4.60;66.93;97747.38;6126493;29;20036;-68
2022/09/14 01:31:25;;;;;;;13.07;6.90;;;;;;;4.52;66.83;97741.50;6126602;29;20043;-68
2022/09/14 01:35:08;;;;;;;16.27;7.15;;;;;;;4.53;67.25;97744.09;6126224;29;20683;-68
2022/09/14 01:38:33;;;;;;;14.32;7.07;;;;;;;4.50;67.19;97742.41;6125965;29;20564;-68
2022/09/14 01:41:36;;;;;;;20.05;7.47;;;;;;;4.56;67.24;97735.31;6126120;29;20048;-69
2022/09/14 01:44:44;;;;;;;20.92;8.77;;;;;;;4.70;67.51;97751.47;6126026;29;20048;-69
2022/09/14 01:47:56;;;;;;;23.05;7.50;;;;;;;4.82;67.58;97742.44;6126062;29;20039;-68
2022/09/14 01:51:04;;;;;;;14.25;7.80;;;;;;;4.89;67.29;97744.81;6125874;29;20535;-68
2022/09/14 01:54:17;;;;;;;15.73;8.15;;;;;;;4.99;67.49;97749.78;6125076;29;20560;-69
2022/09/14 01:57:26;;;;;;;21.50;8.68;;;;;;;5.08;67.26;97746.91;6125679;29;20138;-69
2022/09/14 02:00:32;;;;;;;20.25;8.38;;;;;;;5.20;67.41;97743.94;6125732;29;20074;-69
2022/09/14 02:03:42;;;;;;;25.38;9.40;;;;;;;5.33;67.13;97744.44;6125320;29;20090;-69
2022/09/14 02:06:47;;;;;;;19.80;8.93;;;;;;;5.46;66.92;97745.75;6125487;29;20036;-69
2022/09/14 02:09:52;;;;;;;20.13;8.57;;;;;;;5.61;66.55;97752.28;6125476;29;20051;-69
2022/09/14 02:12:54;;;;;;;26.27;9.80;;;;;;;5.77;66.40;97756.09;6123822;29;20054;-69
2022/09/14 02:16:01;;;;;;;24.55;9.00;;;;;;;5.92;65.86;97753.94;6125392;29;20444;-69
2022/09/14 02:19:04;;;;;;;17.60;7.97;;;;;;;6.06;66.15;97754.38;6125222;29;20046;-69
2022/09/14 02:22:05;;;;;;;21.60;8.30;;;;;;;6.22;65.78;97760.78;6124805;29;20050;-68
2022/09/14 02:25:07;;;;;;;19.20;7.97;;;;;;;6.36;65.32;97759.47;6123574;29;20052;-68
2022/09/14 02:28:11;;;;;;;;;;;;;;;6.49;65.46;97766.84;6125815;29;20047;-70
2022/09/14 02:31:21;;;;;;;28.65;8.20;;;;;;;6.64;64.86;97762.84;6125091;29;19918;-69
2022/09/14 02:34:47;;;;;;;19.17;7.28;;;;;;;6.80;65.05;97762.31;6125032;29;20047;-69
2022/09/14 02:38:07;;;;;;;20.80;7.90;;;;;;;6.96;64.20;97758.22;6125428;29;20048;-69
2022/09/14 02:41:22;;;;;;;20.33;8.85;;;;;;;7.14;63.98;97754.94;6124762;29;20429;-68
2022/09/14 02:44:42;;;;;;;20.65;9.65;;;;;;;7.35;63.21;97755.06;6125017;29;20075;-69
2022/09/14 02:48:14;;;;;;;20.45;8.02;;;;;;;7.55;63.29;97756.91;6124931;29;20052;-70
2022/09/14 02:51:40;;;;;;;19.75;8.52;;;;;;;7.79;63.01;97765.59;6124503;29;20542;-69
2022/09/14 02:55:09;;;;;;;16.23;7.40;;;;;;;8.01;62.43;97763.81;6125057;29;20046;-69
2022/09/14 02:58:14;;;;;;;17.00;7.43;;;;;;;8.18;61.90;97754.38;6125051;29;20044;-68
2022/09/14 03:01:20;;;;;;;14.02;6.50;;;;;;;8.39;61.68;97763.19;6124807;29;20429;-68
2022/09/14 03:04:24;;;;;;;;;;;;;;;8.58;61.50;97755.38;6125044;29;20154;-68
2022/09/14 03:07:30;;;;;;;17.13;6.10;;;;;;;8.69;60.87;97759.28;6128719;29;19918;-69
2022/09/14 03:10:34;;;;;;;14.30;6.43;;;;;;;8.86;60.96;97765.53;6129569;29;20423;-68
2022/09/14 03:13:41;;;;;;;14.73;6.68;;;;;;;8.99;60.65;97758.84;6129462;29;20059;-70
2022/09/14 03:16:45;;;;;;;14.30;7.78;;;;;;;9.14;60.48;97746.78;6129295;29;20043;-69
2022/09/14 03:19:48;;;;;;;16.80;8.25;;;;;;;9.33;59.94;97747.66;6129249;29;20052;-69
2022/09/14 03:22:52;;;;;;;20.70;9.98;;;;;;;9.56;59.54;97754.47;6129049;29;20043;-68
2022/09/14 03:25:59;;;;;;;27.98;11.73;;;;;;;9.81;59.17;97759.44;6128979;29;20047;-68
2022/09/14 03:29:03;;;;;;;23.15;11.90;;;;;;;10.08;58.70;97756.41;6127496;29;20051;-69
2022/09/14 03:32:09;;;;;;;34.00;14.48;;;;;;;10.32;57.98;97759.63;6128874;29;20118;-67
2022/09/14 03:35:14;;;;;;;29.35;16.45;;;;;;;10.44;57.93;97759.00;6127336;29;20516;-68
2022/09/14 03:38:28;;;;;;;38.30;19.58;;;;;;;10.49;57.31;97750.91;6143197;29;20044;-69
2022/09/14 03:41:33;;;;;;;44.55;24.08;;;;;;;10.56;57.12;97752.31;6128704;29;20043;-68
2022/09/14 03:44:40;;;;;;;53.03;25.63;;;;;;;10.65;56.72;97751.81;6128774;29;20039;-69
2022/09/14 03:47:49;;;;;;;55.30;26.40;;;;;;;10.74;56.59;97753.97;6128669;29;20048;-68
2022/09/14 03:50:53;;;;;;;61.72;27.88;;;;;;;10.78;56.57;97760.81;6128567;29;20043;-69
2022/09/14 03:53:57;;;;;;;60.42;28.98;;;;;;;10.84;56.42;97761.41;6128650;29;20036;-69
2022/09/14 03:57:01;;;;;;;57.80;28.58;;;;;;;10.87;56.29;97771.78;6128231;29;20409;-68
2022/09/14 04:00:06;;;;;;;54.22;27.95;;;;;;;10.85;56.30;97771.03;6128507;29;20047;-69
2022/09/14 04:03:10;;;;;;;49.03;27.02;;;;;;;10.84;56.40;97764.03;6128336;29;20051;-69
2022/09/14 04:06:14;;;;;;;55.95;28.63;;;;;;;10.84;56.18;97761.41;6127387;29;20144;-69
2022/09/14 04:09:17;;;;;;;57.05;27.25;;;;;;;10.82;56.18;97769.41;6128189;29;20051;-68
2022/09/14 04:12:21;;;;;;;58.05;27.85;;;;;;;10.84;56.19;97774.56;6127992;29;20154;-69
2022/09/14 04:15:26;;;;;;;49.20;24.85;;;;;;;10.77;55.87;97756.44;6128080;29;20044;-69
2022/09/14 04:18:28;;;;;;;46.33;24.67;;;;;;;10.92;55.63;97775.88;6127323;29;20048;-69
2022/09/14 04:21:30;;;;;;;47.75;24.52;;;;;;;10.99;55.41;97772.00;6127781;29;20134;-68
2022/09/14 04:24:33;;;;;;;52.95;24.63;;;;;;;11.09;55.02;97774.16;6127777;29;20051;-69
2022/09/14 04:27:35;;;;;;;52.20;25.08;;;;;;;11.20;54.79;97777.91;6126357;29;20059;-69
2022/09/14 04:30:39;;;;;;;51.70;22.05;;;;;;;11.31;54.40;97779.13;6127551;29;20048;-68
2022/09/14 04:33:45;;;;;;;38.42;21.20;;;;;;;11.42;54.00;97779.41;6127617;29;20044;-68
2022/09/14 04:36:46;;;;;;;51.80;22.85;;;;;;;11.50;53.77;97781.63;6127433;29;20187;-68
2022/09/14 04:39:47;;;;;;;50.17;23.08;;;;;;;11.61;53.41;97795.94;6127671;29;20043;-69
2022/09/14 04:42:51;;;;;;;51.85;22.92;;;;;;;11.76;53.09;97780.22;6127517;29;20056;-69
2022/09/14 04:46:04;;;;;;;45.38;21.88;;;;;;;11.89;52.67;97783.91;6127305;29;20044;-69
2022/09/14 04:49:06;;;;;;;44.28;22.95;;;;;;;12.03;52.24;97784.00;6127263;29;20076;-69
2022/09/14 04:52:13;;;;;;;44.50;22.40;;;;;;;12.16;51.94;97775.38;6127420;29;20548;-69
2022/09/14 04:55:17;;;;;;;47.33;22.90;;;;;;;12.40;51.45;97779.25;6127123;29;20039;-69
2022/09/14 04:58:21;;;;;;;47.50;23.95;;;;;;;12.58;50.89;97772.03;6127409;29;20039;-69
2022/09/14 05:01:29;;;;;;;47.67;24.75;;;;;;;12.83;50.59;97774.09;6126809;29;20053;-69
2022/09/14 05:04:35;;;;;;;43.72;22.60;;;;;;;13.08;49.70;97781.41;6126943;29;20414;-68
2022/09/14 05:07:37;;;;;;;;;;;;;;;13.41;49.46;97783.78;6127187;29;20051;-69
2022/09/14 05:10:40;;;;;;;50.80;23.52;;;;;;;13.54;48.69;97772.47;6126856;29;19922;-69
2022/09/14 05:13:45;;;;;;;51.15;24.63;;;;;;;13.77;47.95;97777.16;6126588;29;20067;-70
2022/09/14 05:16:46;;;;;;;40.97;22.25;;;;;;;14.08;47.36;97778.69;6126286;29;20047;-68
2022/09/14 05:19:53;;;;;;;46.75;22.75;;;;;;;14.54;46.59;97782.78;6126644;29;20445;-67
2022/09/14 05:22:54;;;;;;;;;;;;;;;15.37;45.61;97780.69;6126745;29;20078;-69
2022/09/14 05:25:56;;;;;;;35.58;19.63;;;;;;;18.56;39.40;97787.47;6126438;29;19923;-69
2022/09/14 05:29:01;;;;;;;40.03;20.80;;;;;;;22.77;32.23;97788.31;6126069;29;20081;-69
2022/09/14 05:32:03;;;;;;;39.05;19.45;;;;;;;26.41;27.62;97795.00;6126290;29;20039;-68
2022/09/14 05:35:05;;;;;;;30.50;16.73;;;;;;;29.51;23.60;97798.75;6125993;29;20065;-68
2022/09/14 05:38:07;;;;;;;33.10;17.70;;;;;;;31.60;21.05;97795.56;6126141;29;20425;-68
2022/09/14 05:41:12;;;;;;;34.63;17.00;;;;;;;31.73;20.63;97795.56;6126224;29;20051;-69
2022/09/14 05:44:16;;;;;;;33.38;17.67;;;;;;;31.94;19.79;97788.22;6126084;29;20420;-69
2022/09/14 05:47:23;;;;;;;36.97;20.25;;;;;;;31.67;20.12;97785.50;6125973;29;20047;-68
2022/09/14 05:50:28;;;;;;;34.92;18.90;;;;;;;32.05;19.76;97787.56;6125782;29;20155;-69
2022/09/14 05:53:32;;;;;;;26.92;16.50;;;;;;;33.25;18.20;97787.78;6126031;29;20523;-69
2022/09/14 05:56:39;;;;;;;35.33;16.63;;;;;;;34.98;16.83;97785.03;6125825;29;20047;-69
2022/09/14 05:59:41;;;;;;;25.50;14.75;;;;;;;36.31;14.98;97782.72;6125566;29;20122;-68
2022/09/14 06:02:47;;;;;;;24.65;14.85;;;;;;;36.87;14.31;97786.59;6125460;29;20163;-69
2022/09/14 06:05:48;;;;;;;28.42;14.50;;;;;;;37.37;14.21;97774.88;6125890;29;20040;-68
2022/09/14 06:08:53;;;;;;;28.33;14.73;;;;;;;37.95;13.36;97770.84;6125356;29;20111;-68
2022/09/14 06:11:57;;;;;;;25.10;14.73;;;;;;;38.97;12.42;97767.66;6125192;29;20059;-68
2022/09/14 06:15:04;;;;;;;26.95;15.63;;;;;;;39.76;12.21;97774.41;6125577;29;20036;-68
2022/09/14 06:18:06;;;;;;;23.42;13.70;;;;;;;40.31;11.79;97764.78;6124494;29;20051;-68
2022/09/14 06:21:17;;;;;;;21.63;13.40;;;;;;;40.70;11.80;97767.97;6125526;29;20126;-68
2022/09/14 06:24:19;;;;;;;22.92;12.77;;;;;;;41.27;11.11;97769.69;6125733;29;20095;-68
2022/09/14 06:27:26;;;;;;;20.02;12.82;;;;;;;41.63;10.50;97766.94;6125080;29;20050;-67
2022/09/14 06:30:32;;;;;;;23.90;13.52;;;;;;;42.11;10.26;97769.34;6125517;29;20055;-67
2022/09/14 06:33:35;;;;;;;26.90;13.00;;;;;;;42.29;10.30;97757.63;6125001;29;20508;-68
2022/09/14 06:36:38;;;;;;;21.45;13.05;;;;;;;42.82;9.97;97746.88;6124924;29;20055;-68
2022/09/14 06:39:44;;;;;;;16.40;9.98;;;;;;;43.53;9.16;97764.06;6124849;29;20134;-68
2022/09/14 06:42:51;;;;;;;17.55;11.13;;;;;;;43.28;8.94;97763.16;6124949;29;20430;-68
2022/09/14 06:46:03;;;;;;;19.63;11.93;;;;;;;42.72;9.69;97751.63;6123604;29;20417;-68
2022/09/14 06:49:11;;;;;;;15.35;10.45;;;;;;;42.37;9.27;97750.72;6125216;29;20044;-68
2022/09/14 06:52:15;;;;;;;17.27;11.13;;;;;;;42.74;9.46;97744.72;6125042;29;20417;-68
2022/09/14 06:55:21;;;;;;;16.48;10.73;;;;;;;43.22;9.44;97753.25;6125047;29;20493;-68
2022/09/14 06:58:28;;;;;;;19.83;11.27;;;;;;;43.60;8.80;97753.50;6124879;29;20043;-67
2022/09/14 07:01:33;;;;;;;13.60;8.45;;;;;;;43.64;8.50;97754.56;6124669;29;20048;-67
2022/09/14 07:04:39;;;;;;;15.20;8.25;;;;;;;43.13;9.08;97748.59;6124429;29;20154;-68
2022/09/14 07:07:41;;;;;;;12.50;6.07;;;;;;;41.63;9.36;97744.03;6124208;29;20056;-68
2022/09/14 07:10:55;;;;;;;9.15;5.13;;;;;;;40.30;10.17;97738.31;6124683;29;20069;-68
2022/09/14 07:14:00;;;;;;;11.52;5.35;;;;;;;39.09;10.84;97735.28;6124629;29;20059;-68
2022/09/14 07:17:07;;;;;;;8.25;4.35;;;;;;;38.56;10.79;97725.97;6124941;29;20044;-69
2022/09/14 07:20:14;;;;;;;7.05;4.07;;;;;;;39.31;10.75;97726.97;6124561;29;20146;-69
2022/09/14 07:23:15;;;;;;;5.70;3.40;;;;;;;40.03;10.19;97721.91;6124588;29;20106;-68
2022/09/14 07:26:26;;;;;;;5.57;3.08;;;;;;;41.52;9.57;97725.81;6124742;29;20063;-68
2022/09/14 07:29:27;;;;;;;6.53;3.30;;;;;;;42.90;8.56;97716.94;6124229;29;20079;-68
2022/09/14 07:32:29;;;;;;;6.97;2.92;;;;;;;43.08;8.25;97726.50;6124231;29;20062;-67
2022/09/14 07:35:37;;;;;;;6.80;2.47;;;;;;;43.35;8.35;97713.00;6124084;29;20512;-68
2022/09/14 07:38:46;;;;;;;6.88;2.13;;;;;;;43.32;7.93;97723.84;6124577;29;20134;-69
2022/09/14 07:41:53;;;;;;;4.97;2.15;;;;;;;42.42;8.81;97711.16;6124174;29;20103;-69
2022/09/14 07:44:59;;;;;;;9.32;2.88;;;;;;;41.81;8.98;97707.47;6123993;29;20183;-68
2022/09/14 07:48:03;;;;;;;6.93;2.30;;;;;;;42.15;8.46;97701.28;6124458;29;20117;-69
2022/09/14 07:51:11;;;;;;;6.82;2.10;;;;;;;42.73;8.50;97709.88;6124235;29;20580;-69
2022/09/14 07:54:20;;;;;;;6.28;2.05;;;;;;;42.78;7.87;97715.38;6127918;29;20055;-69
2022/09/14 07:57:29;;;;;;;5.97;2.08;;;;;;;41.17;8.95;97703.44;6128495;29;20043;-69
2022/09/14 08:00:35;;;;;;;4.97;2.30;;;;;;;40.78;9.38;97700.38;6128732;29;20052;-69
2022/09/14 08:03:44;;;;;;;8.68;2.30;;;;;;;41.37;9.18;97702.59;6128312;29;20043;-69
2022/09/14 08:06:48;;;;;;;7.55;2.28;;;;;;;41.94;8.89;97701.38;6128284;29;20142;-69
2022/09/14 08:09:52;;;;;;;7.95;2.30;;;;;;;41.75;8.97;97692.03;6128293;29;20441;-70
2022/09/14 08:12:59;;;;;;;9.07;2.20;;;;;;;41.48;9.34;97695.16;6127796;29;20252;-69
2022/09/14 08:16:01;;;;;;;8.98;3.00;;;;;;;41.31;9.57;97687.16;6127641;29;20071;-69
2022/09/14 08:19:04;;;;;;;10.00;2.35;;;;;;;41.26;9.44;97689.91;6126292;29;20047;-69
2022/09/14 08:22:09;;;;;;;8.68;2.53;;;;;;;41.18;9.76;97693.22;6127924;29;20424;-68
2022/09/14 08:25:16;;;;;;;9.13;2.45;;;;;;;40.92;9.96;97689.63;6127804;29;20048;-69
2022/09/14 08:28:23;;;;;;;4.72;2.00;;;;;;;40.45;10.17;97690.63;6127775;29;20048;-69
2022/09/14 08:31:28;;;;;;;7.10;2.03;;;;;;;39.86;10.59;97680.75;6127724;29;20047;-68
2022/09/14 08:34:33;;;;;;;3.03;1.58;;;;;;;39.21;10.55;97675.41;6127548;29;20398;-69
2022/09/14 08:37:36;;;;;;;3.33;1.50;;;;;;;38.66;10.70;97671.06;6127443;29;20063;-69
2022/09/14 08:40:50;;;;;;;2.67;1.25;;;;;;;36.84;11.43;97682.88;6127341;29;20043;-69
2022/09/14 08:44:01;;;;;;;3.83;1.05;;;;;;;35.00;12.65;97676.25;6127061;28;20055;-68
2022/09/14 08:47:05;;;;;;;2.60;1.13;;;;;;;33.82;13.50;97664.84;6127548;29;20051;-69
2022/09/14 08:50:16;;;;;;;2.97;1.55;;;;;;;33.66;13.65;97652.69;6127480;29;20071;-69
2022/09/14 08:53:17;;;;;;;3.15;1.10;;;;;;;34.49;13.19;97655.78;6127262;29;20142;-69
2022/09/14 08:56:29;;;;;;;2.83;1.20;;;;;;;35.25;12.85;97652.25;6127145;29;20434;-67
2022/09/14 08:59:33;;;;;;;1.67;1.08;;;;;;;35.87;12.35;97654.44;6126985;29;20054;-68
2022/09/14 09:03:08;;;;;;;1.27;0.80;;;;;;;35.92;12.06;97638.09;6127018;29;20047;-69
2022/09/14 09:06:21;;;;;;;1.67;1.10;;;;;;;35.44;12.72;97644.75;6126781;29;20150;-69
2022/09/14 09:09:31;;;;;;;4.85;2.33;;;;;;;35.23;12.47;97634.41;6125676;29;20058;-68
2022/09/14 09:12:53;;;;;;;2.53;1.67;;;;;;;34.65;12.88;97627.78;6126789;29;20055;-69
2022/09/14 09:16:02;;;;;;;2.33;1.25;;;;;;;33.50;13.70;97626.78;6127026;28;20134;-69
2022/09/14 09:19:10;;;;;;;1.00;0.95;;;;;;;32.54;14.21;97627.28;6126498;29;20051;-68
2022/09/14 09:22:19;;;;;;;1.42;1.00;;;;;;;32.31;14.33;97622.38;6126259;28;20130;-69
2022/09/14 09:25:29;;;;;;;2.70;0.90;;;;;;;32.02;14.89;97616.50;6126339;29;20050;-68
2022/09/14 09:28:33;;;;;;;1.40;1.00;;;;;;;31.82;14.61;97618.44;6126147;29;20043;-70
2022/09/14 09:31:46;;;;;;;1.00;0.80;;;;;;;31.24;14.94;97613.81;6126140;29;20048;-69
2022/09/14 09:34:53;;;;;;;2.05;1.20;;;;;;;29.99;15.84;97608.94;6126568;29;20067;-69
2022/09/14 09:37:57;;;;;;;1.42;1.08;;;;;;;29.35;16.46;97603.03;6125911;29;20048;-69
2022/09/14 09:41:10;;;;;;;1.65;1.00;;;;;;;29.83;16.24;97597.63;6125986;29;20040;-70
2022/09/14 09:44:16;;;;;;;1.08;0.90;;;;;;;30.25;16.14;97601.94;6125833;29;20050;-69
2022/09/14 09:47:34;;;;;;;1.67;1.23;;;;;;;30.68;15.62;97596.09;6126029;29;20040;-69
2022/09/14 09:50:36;;;;;;;1.30;0.95;;;;;;;30.53;15.45;97592.75;6126005;29;20043;-69
2022/09/14 09:53:53;;;;;;;1.05;0.65;;;;;;;30.53;15.84;97595.47;6125873;29;20051;-69
2022/09/14 09:57:28;;;;;;;3.92;1.17;;;;;;;30.36;16.08;97587.72;6125498;29;20044;-69
2022/09/14 10:00:30;;;;;;;0.88;0.80;;;;;;;29.96;16.11;97587.66;6115671;29;20059;-69
2022/09/14 10:03:38;;;;;;;0.98;0.60;;;;;;;29.00;16.82;97581.34;6125769;29;20445;-69
2022/09/14 10:06:48;;;;;;;1.08;0.80;;;;;;;28.56;17.30;97580.63;6125657;29;20362;-68
2022/09/14 10:10:02;;;;;;;1.85;0.70;;;;;;;28.77;17.39;97576.19;6125677;29;20036;-69
2022/09/14 10:13:34;;;;;;;1.00;0.82;;;;;;;29.11;16.75;97577.28;6124346;29;20508;-69
2022/09/14 10:16:40;;;;;;;0.65;0.57;;;;;;;29.50;16.82;97577.47;6124680;29;20051;-68
2022/09/14 10:19:51;;;;;;;2.20;1.50;;;;;;;29.98;15.83;97580.16;6125292;29;20040;-68
2022/09/14 10:22:53;;;;;;;4.10;1.90;;;;;;;30.33;15.87;97571.88;6125310;29;20110;-69
2022/09/14 10:26:12;;;;;;;2.78;1.13;;;;;;;30.91;15.74;97570.38;6125055;29;20035;-69
2022/09/14 10:29:36;;;;;;;1.23;0.90;;;;;;;30.74;15.21;97573.50;6125377;29;20688;-68
2022/09/14 10:32:45;;;;;;;0.83;0.70;;;;;;;29.06;16.61;97558.91;6125270;29;20047;-69
2022/09/14 10:35:55;;;;;;;1.08;0.80;;;;;;;27.63;17.42;97557.19;6125263;29;20043;-70
2022/09/14 10:39:19;;;;;;;0.43;0.40;;;;;;;26.42;18.93;97560.06;6125019;29;20051;-69
2022/09/14 10:42:37;;;;;;;1.85;0.70;;;;;;;25.79;19.84;97558.53;6125090;29;20043;-68
2022/09/14 10:45:57;;;;;;;1.38;0.85;;;;;;;25.50;19.98;97554.63;6123798;29;20564;-70
2022/09/14 10:49:01;;;;;;;1.55;0.70;;;;;;;25.08;20.50;97553.16;6124862;29;20401;-69
2022/09/14 10:52:43;;;;;;;1.75;0.80;;;;;;;24.82;20.67;97555.25;6124611;29;20417;-68
2022/09/14 10:56:10;;;;;;;1.48;0.88;;;;;;;24.47;21.08;97551.97;6087169;29;20445;-68
2022/09/14 10:59:30;;;;;;;2.03;0.93;;;;;;;24.19;21.31;97560.34;6125039;29;20050;-69
2022/09/14 11:03:00;;;;;;;2.70;2.17;;;;;;;23.87;21.68;97554.97;6125047;29;20094;-70
2022/09/14 11:06:19;;;;;;;6.22;3.50;;;;;;;23.78;22.08;97550.56;6124670;29;20055;-69
2022/09/14 11:09:36;;;;;;;3.53;2.40;;;;;;;23.62;22.30;97551.38;6124952;29;20497;-69
2022/09/14 11:12:51;;;;;;;3.40;1.95;;;;;;;23.54;22.48;97554.88;6124631;29;20059;-69
2022/09/14 11:15:58;;;;;;;1.88;1.15;;;;;;;23.33;22.78;97551.81;6124660;29;20139;-68
2022/09/14 11:19:12;;;;;;;1.60;1.08;;;;;;;22.94;23.17;97553.13;6124619;29;20535;-69
2022/09/14 11:22:40;;;;;;;2.28;1.55;;;;;;;22.72;23.58;97554.53;6123200;29;20139;-69
2022/09/14 11:25:46;;;;;;;2.90;1.45;;;;;;;22.45;23.73;97552.00;6124087;29;20087;-70
2022/09/14 11:28:55;;;;;;;1.10;1.00;;;;;;;22.27;24.22;97560.94;6128860;29;20047;-68
2022/09/14 11:32:15;;;;;;;1.58;0.90;;;;;;;22.12;24.60;97557.09;6128861;29;20469;-69
2022/09/14 11:35:20;;;;;;;0.82;0.75;;;;;;;22.09;24.58;97555.56;6129083;29;20066;-69
2022/09/14 11:38:30;;;;;;;0.90;0.80;;;;;;;21.93;25.14;97553.59;6128868;29;20073;-69
2022/09/14 11:41:52;;;;;;;0.82;0.60;;;;;;;22.13;25.16;97548.06;6128567;29;20457;-69
2022/09/14 11:45:02;;;;;;;2.58;1.60;;;;;;;22.49;24.61;97548.84;6128302;29;20059;-69
2022/09/14 11:48:19;;;;;;;1.98;1.30;;;;;;;22.77;24.26;97546.84;6128032;29;20107;-70
2022/09/14 11:51:43;;;;;;;1.33;1.23;;;;;;;22.63;24.42;97545.59;6128468;29;20039;-69
2022/09/14 11:54:44;;;;;;;4.93;3.78;;;;;;;22.41;24.74;97552.31;6128025;29;20129;-68
2022/09/14 11:57:51;;;;;;;2.70;2.22;;;;;;;22.14;25.02;97560.47;6128262;29;20044;-69
2022/09/14 12:01:00;;;;;;;2.75;1.50;;;;;;;21.95;25.53;97556.97;6128133;29;20043;-68
2022/09/14 12:04:10;;;;;;;4.80;3.42;;;;;;;21.69;25.88;97545.34;6128241;29;20053;-68
2022/09/14 12:07:46;;;;;;;2.08;1.80;;;;;;;21.72;25.81;97548.56;6128028;29;20377;-69
2022/09/14 12:11:06;;;;;;;1.10;0.90;;;;;;;21.64;26.10;97553.00;6128147;28;20039;-70
2022/09/14 12:14:29;;;;;;;1.13;0.70;;;;;;;21.59;26.16;97544.56;6127866;29;20055;-68
2022/09/14 12:17:32;;;;;;;0.80;0.80;;;;;;;21.51;26.41;97543.50;6127531;29;20078;-68
2022/09/14 12:20:39;;;;;;;2.22;1.85;;;;;;;21.63;26.29;97537.94;6127040;29;20047;-69
2022/09/14 12:23:44;;;;;;;1.40;1.30;;;;;;;21.68;26.43;97543.66;6126589;29;20056;-69
2022/09/14 12:26:47;;;;;;;2.38;1.08;;;;;;;21.57;26.69;97535.84;6127419;29;20051;-71
2022/09/14 12:29:51;;;;;;;4.80;3.17;;;;;;;21.35;26.91;97542.47;6127542;29;20043;-70
2022/09/14 12:32:55;;;;;;;3.13;2.38;;;;;;;21.12;27.32;97542.88;6127199;29;20092;-69
2022/09/14 12:36:06;;;;;;;2.20;2.00;;;;;;;20.91;27.75;97535.06;6127379;29;20107;-69
2022/09/14 12:39:27;;;;;;;4.03;1.95;;;;;;;20.77;27.82;97539.06;6126397;29;20545;-70
2022/09/14 12:42:31;;;;;;;1.92;1.42;;;;;;;20.47;27.88;97534.81;6126944;29;20044;-69
2022/09/14 12:46:01;;;;;;;1.63;1.20;;;;;;;20.30;28.12;97535.56;6126900;29;20122;-69
2022/09/14 12:49:23;;;;;;;1.30;1.10;;;;;;;20.13;28.11;97540.66;6127173;29;20091;-69
2022/09/14 12:52:24;;;;;;;1.60;0.85;;;;;;;19.94;28.33;97535.31;6126630;29;20175;-69
2022/09/14 12:56:00;;;;;;;1.73;0.82;;;;;;;19.94;28.74;97529.97;6126685;29;20138;-69
2022/09/14 12:59:20;;;;;;;1.23;0.98;;;;;;;19.74;28.88;97540.66;6125013;29;20521;-69
2022/09/14 13:02:37;;;;;;;1.63;0.80;;;;;;;19.70;29.16;97549.94;6126848;29;20040;-69
2022/09/14 13:05:45;;;;;;;9.15;6.45;;;;;;;19.65;29.51;97538.84;6126630;29;20563;-69
2022/09/14 13:08:55;;;;;;;5.70;3.53;;;;;;;19.60;29.27;97541.06;6126529;29;20051;-69
2022/09/14 13:12:08;;;;;;;3.40;1.95;;;;;;;19.59;29.40;97534.03;6125972;29;20110;-69
2022/09/14 13:15:27;;;;;;;4.78;2.88;;;;;;;19.43;29.11;97536.41;6126102;29;20039;-69
2022/09/14 13:18:35;;;;;;;1.60;1.27;;;;;;;19.32;29.62;97544.53;6126283;29;20495;-69
2022/09/14 13:21:45;;;;;;;4.93;1.25;;;;;;;19.19;30.04;97539.44;6126239;29;20133;-69
2022/09/14 13:24:50;;;;;;;2.70;1.50;;;;;;;19.14;30.29;97541.69;6126058;29;20066;-69
2022/09/14 13:27:55;;;;;;;2.33;1.38;;;;;;;19.06;30.36;97545.03;6125535;29;20497;-69
2022/09/14 13:31:00;;;;;;;3.13;1.50;;;;;;;18.90;30.36;97540.19;6125910;29;20344;-69
2022/09/14 13:34:04;;;;;;;1.90;1.40;;;;;;;18.79;30.76;97543.81;6125751;29;20331;-71
2022/09/14 13:37:06;;;;;;;2.92;1.95;;;;;;;18.73;31.08;97544.31;6126380;29;20425;-69
2022/09/14 13:40:08;;;;;;;4.93;2.20;;;;;;;18.67;31.64;97539.53;6125565;29;20046;-69
2022/09/14 13:43:15;;;;;;;3.50;2.30;;;;;;;18.57;31.67;97543.94;6125435;29;20414;-68
2022/09/14 13:46:21;;;;;;;4.80;2.35;;;;;;;18.47;31.98;97537.75;6126265;29;20039;-69
2022/09/14 13:49:25;;;;;;;4.55;2.15;;;;;;;18.39;32.05;97531.25;6125561;29;20418;-69
2022/09/14 13:52:36;;;;;;;2.78;1.58;;;;;;;18.38;31.92;97534.06;6125643;29;20048;-68
2022/09/14 13:55:42;;;;;;;4.88;1.98;;;;;;;18.28;32.54;97538.47;6125678;29;20044;-69
2022/09/14 13:59:06;;;;;;;3.30;1.77;;;;;;;18.18;32.64;97541.94;6125746;29;20435;-70
2022/09/14 14:02:12;;;;;;;2.88;1.80;;;;;;;18.09;32.45;97533.91;6125926;29;20059;-69
2022/09/14 14:05:29;;;;;;;1.85;1.30;;;;;;;18.06;32.38;97534.13;6125240;29;20055;-69
2022/09/14 14:08:36;;;;;;;1.70;1.33;;;;;;;17.99;32.79;97527.66;6124971;29;20502;-69
2022/09/14 14:11:50;;;;;;;3.88;1.50;;;;;;;17.95;32.59;97522.59;6125054;29;20059;-69
2022/09/14 14:14:55;;;;;;;1.50;1.33;;;;;;;17.84;33.13;97530.63;6125295;29;20413;-69
2022/09/14 14:18:20;;;;;;;8.75;5.63;;;;;;;17.75;33.29;97523.38;6125480;29;20051;-69
2022/09/14 14:21:28;;;;;;;3.45;2.40;;;;;;;17.69;33.27;97522.09;6125614;29;20040;-69
2022/09/14 14:24:30;;;;;;;2.88;1.80;;;;;;;17.66;33.24;97522.34;6124755;29;20062;-70
2022/09/14 14:27:40;;;;;;;3.37;1.57;;;;;;;17.59;33.48;97515.00;6125209;29;20052;-69
2022/09/14 14:30:46;;;;;;;6.13;2.92;;;;;;;17.53;33.71;97516.34;6124982;29;20067;-69
2022/09/14 14:33:50;;;;;;;4.70;2.15;;;;;;;17.48;34.11;97519.38;6124958;29;20060;-69
2022/09/14 14:36:57;;;;;;;4.57;2.00;;;;;;;17.42;34.25;97519.88;6125061;29;20441;-69
2022/09/14 14:40:01;;;;;;;4.25;2.08;;;;;;;17.35;34.42;97513.38;6124875;29;20047;-69
2022/09/14 14:43:07;;;;;;;5.15;2.67;;;;;;;17.32;34.57;97518.94;6124278;29;20056;-70
2022/09/14 14:46:09;;;;;;;7.38;2.50;;;;;;;17.21;35.25;97518.97;6125468;29;20501;-69